RYR192Y LEVC-EDDK
Flight info
| Callsign | RYR192Y |
|---|---|
| Flight time | 2h 6m |
| Altitude | 36000 |
| Route | SOPET M985 BCN N870 DIBER DCT ODIXU DCT MAXIR DCT LUSOL DCT BODRU DCT OKTET DCT IRMAR DCT KINES DCT VANAS DCT MOBLO DCT UBIMA DCT GILIR DCT PENDU DCT IXILU DCT GIVOR DCT SORAL DCT IBERA N853 ARCKY T853 IBESA T860 ERUKI ERUKI1G |
| Aircraft | A320/M-SDE3FGHIRWY/LB1 |
Departure
| Time | 2026-05-08 15:33 |
|---|---|
| Airport | Valencia Airport (LEVC) |
Arrival
| Time | 2026-05-08 17:40 |
|---|---|
| Airport | Cologne Bonn Airport (EDDK) |
| Time | Latitude | Longitude | Altitude | Speed | Heading |
|---|---|---|---|---|---|
| 2026-05-08 14:52 | 39.49015 | -0.47226 | 189 ft | 0 kts | 17° |
| 2026-05-08 15:20 | 39.49014 | -0.47226 | 189 ft | 2 kts | 17° |
| 2026-05-08 15:20 | 39.48990 | -0.47236 | 200 ft | 4 kts | 20° |
| 2026-05-08 15:20 | 39.48970 | -0.47246 | 189 ft | 3 kts | 20° |
| 2026-05-08 15:20 | 39.48945 | -0.47258 | 204 ft | 4 kts | 17° |
| 2026-05-08 15:21 | 39.48922 | -0.47263 | 190 ft | 4 kts | 324° |
| 2026-05-08 15:21 | 39.48916 | -0.47242 | 202 ft | 4 kts | 274° |
| 2026-05-08 15:21 | 39.48915 | -0.47208 | 188 ft | 3 kts | 273° |
| 2026-05-08 15:21 | 39.48915 | -0.47205 | 188 ft | 0 kts | 274° |
| 2026-05-08 15:23 | 39.48915 | -0.47206 | 188 ft | 0 kts | 274° |
| 2026-05-08 15:23 | 39.48916 | -0.47217 | 189 ft | 3 kts | 274° |
| 2026-05-08 15:24 | 39.48918 | -0.47253 | 198 ft | 5 kts | 277° |
| 2026-05-08 15:24 | 39.48934 | -0.47307 | 191 ft | 8 kts | 295° |
| 2026-05-08 15:24 | 39.48960 | -0.47378 | 200 ft | 10 kts | 296° |
| 2026-05-08 15:24 | 39.48993 | -0.47464 | 209 ft | 12 kts | 297° |
| 2026-05-08 15:25 | 39.49033 | -0.47570 | 205 ft | 14 kts | 296° |
| 2026-05-08 15:25 | 39.49054 | -0.47693 | 200 ft | 14 kts | 258° |
| 2026-05-08 15:25 | 39.49032 | -0.47817 | 205 ft | 14 kts | 257° |
| 2026-05-08 15:25 | 39.49050 | -0.47947 | 213 ft | 17 kts | 294° |
| 2026-05-08 15:26 | 39.49109 | -0.48102 | 212 ft | 21 kts | 296° |
| 2026-05-08 15:26 | 39.49176 | -0.48277 | 211 ft | 22 kts | 296° |
| 2026-05-08 15:26 | 39.49248 | -0.48467 | 217 ft | 24 kts | 296° |
| 2026-05-08 15:26 | 39.49323 | -0.48663 | 227 ft | 25 kts | 296° |
| 2026-05-08 15:27 | 39.49404 | -0.48875 | 221 ft | 27 kts | 296° |
| 2026-05-08 15:27 | 39.49488 | -0.49094 | 223 ft | 28 kts | 296° |
| 2026-05-08 15:27 | 39.49572 | -0.49314 | 228 ft | 27 kts | 296° |
| 2026-05-08 15:27 | 39.49656 | -0.49534 | 232 ft | 27 kts | 296° |
| 2026-05-08 15:28 | 39.49737 | -0.49746 | 237 ft | 26 kts | 296° |
| 2026-05-08 15:28 | 39.49796 | -0.49902 | 243 ft | 12 kts | 290° |
| 2026-05-08 15:28 | 39.49760 | -0.49977 | 246 ft | 10 kts | 207° |
| 2026-05-08 15:28 | 39.49740 | -0.49989 | 246 ft | 0 kts | 205° |
| 2026-05-08 15:29 | 39.49738 | -0.49991 | 246 ft | 1 kts | 205° |
| 2026-05-08 15:29 | 39.49731 | -0.49995 | 246 ft | 0 kts | 205° |
| 2026-05-08 15:32 | 39.49716 | -0.50004 | 247 ft | 6 kts | 205° |
| 2026-05-08 15:32 | 39.49652 | -0.50022 | 247 ft | 12 kts | 156° |
| 2026-05-08 15:32 | 39.49573 | -0.49843 | 240 ft | 50 kts | 116° |
| 2026-05-08 15:33 | 39.49319 | -0.49177 | 225 ft | 111 kts | 116° |
| 2026-05-08 15:33 | 39.48903 | -0.48081 | 217 ft | 157 kts | 117° |
| 2026-05-08 15:33 | 39.48364 | -0.46858 | 777 ft | 156 kts | 117° |
| 2026-05-08 15:33 | 39.47846 | -0.45631 | 1380 ft | 155 kts | 115° |
| 2026-05-08 15:34 | 39.47341 | -0.44353 | 1713 ft | 169 kts | 116° |
| 2026-05-08 15:34 | 39.46637 | -0.43010 | 1946 ft | 191 kts | 127° |
| 2026-05-08 15:34 | 39.45755 | -0.41593 | 2225 ft | 216 kts | 128° |
| 2026-05-08 15:34 | 39.44765 | -0.39977 | 2586 ft | 241 kts | 127° |
| 2026-05-08 15:35 | 39.43705 | -0.38209 | 3171 ft | 255 kts | 128° |
| 2026-05-08 15:35 | 39.42601 | -0.36368 | 3936 ft | 262 kts | 128° |
| 2026-05-08 15:35 | 39.41472 | -0.34482 | 4794 ft | 268 kts | 129° |
| 2026-05-08 15:35 | 39.40375 | -0.32512 | 5601 ft | 274 kts | 118° |
| 2026-05-08 15:36 | 39.39962 | -0.30093 | 6357 ft | 284 kts | 85° |
| 2026-05-08 15:36 | 39.40298 | -0.28424 | 6868 ft | 287 kts | 63° |
| 2026-05-08 15:36 | 39.42176 | -0.26095 | 7782 ft | 290 kts | 19° |
| 2026-05-08 15:36 | 39.44104 | -0.25340 | 8573 ft | 290 kts | 10° |
| 2026-05-08 15:37 | 39.46093 | -0.24866 | 9389 ft | 292 kts | 5° |
| 2026-05-08 15:37 | 39.48110 | -0.24515 | 10141 ft | 294 kts | 4° |
| 2026-05-08 15:37 | 39.50164 | -0.24184 | 10728 ft | 304 kts | 4° |
| 2026-05-08 15:37 | 39.52339 | -0.23821 | 10915 ft | 326 kts | 5° |
| 2026-05-08 15:38 | 39.54650 | -0.23407 | 11220 ft | 342 kts | 5° |
| 2026-05-08 15:38 | 39.57028 | -0.22949 | 11779 ft | 348 kts | 5° |
| 2026-05-08 15:38 | 39.59443 | -0.22462 | 12370 ft | 354 kts | 6° |
| 2026-05-08 15:38 | 39.61898 | -0.21955 | 12979 ft | 360 kts | 5° |
| 2026-05-08 15:39 | 39.64382 | -0.21401 | 13593 ft | 366 kts | 9° |
| 2026-05-08 15:39 | 39.66822 | -0.20320 | 14127 ft | 376 kts | 22° |
| 2026-05-08 15:39 | 39.69079 | -0.18543 | 14671 ft | 384 kts | 36° |
| 2026-05-08 15:39 | 39.71065 | -0.16175 | 15200 ft | 391 kts | 43° |
| 2026-05-08 15:40 | 39.73013 | -0.13685 | 15735 ft | 395 kts | 42° |
| 2026-05-08 15:40 | 39.74984 | -0.11175 | 16264 ft | 399 kts | 42° |
| 2026-05-08 15:40 | 39.76981 | -0.08639 | 16788 ft | 404 kts | 42° |
| 2026-05-08 15:40 | 39.79000 | -0.06073 | 17322 ft | 408 kts | 42° |
| 2026-05-08 15:41 | 39.81038 | -0.03477 | 17874 ft | 412 kts | 42° |
| 2026-05-08 15:41 | 39.82426 | -0.01705 | 18238 ft | 415 kts | 42° |
| 2026-05-08 15:41 | 39.84489 | 0.00953 | 18706 ft | 419 kts | 43° |
| 2026-05-08 15:41 | 39.86526 | 0.03695 | 19216 ft | 423 kts | 44° |
| 2026-05-08 15:42 | 39.88546 | 0.06509 | 19711 ft | 427 kts | 45° |
| 2026-05-08 15:42 | 39.90566 | 0.09368 | 20217 ft | 431 kts | 45° |
| 2026-05-08 15:42 | 39.92602 | 0.12260 | 20702 ft | 435 kts | 45° |
| 2026-05-08 15:42 | 39.94658 | 0.15170 | 21179 ft | 438 kts | 45° |
| 2026-05-08 15:43 | 39.96740 | 0.18096 | 21645 ft | 442 kts | 45° |
| 2026-05-08 15:43 | 39.98848 | 0.21039 | 22098 ft | 446 kts | 45° |
| 2026-05-08 15:43 | 40.00979 | 0.24009 | 22576 ft | 450 kts | 44° |
| 2026-05-08 15:43 | 40.03126 | 0.27000 | 23065 ft | 453 kts | 44° |
| 2026-05-08 15:44 | 40.05289 | 0.30016 | 23512 ft | 457 kts | 45° |
| 2026-05-08 15:44 | 40.07471 | 0.33061 | 23883 ft | 461 kts | 45° |
| 2026-05-08 15:44 | 40.09664 | 0.36128 | 24268 ft | 464 kts | 44° |
| 2026-05-08 15:44 | 40.11870 | 0.39216 | 24636 ft | 466 kts | 45° |
| 2026-05-08 15:45 | 40.14087 | 0.42323 | 25026 ft | 468 kts | 45° |
| 2026-05-08 15:45 | 40.16313 | 0.45451 | 25410 ft | 471 kts | 45° |
| 2026-05-08 15:45 | 40.18544 | 0.48592 | 25779 ft | 473 kts | 45° |
| 2026-05-08 15:45 | 40.20789 | 0.51755 | 26142 ft | 475 kts | 45° |
| 2026-05-08 15:46 | 40.23042 | 0.54932 | 26503 ft | 478 kts | 45° |
| 2026-05-08 15:46 | 40.25307 | 0.58126 | 26888 ft | 480 kts | 44° |
| 2026-05-08 15:46 | 40.27585 | 0.61339 | 27231 ft | 482 kts | 45° |
| 2026-05-08 15:46 | 40.29867 | 0.64562 | 27586 ft | 484 kts | 45° |
| 2026-05-08 15:47 | 40.32158 | 0.67804 | 27929 ft | 486 kts | 45° |
| 2026-05-08 15:47 | 40.34457 | 0.71061 | 28271 ft | 488 kts | 45° |
| 2026-05-08 15:47 | 40.36766 | 0.74338 | 28606 ft | 490 kts | 45° |
| 2026-05-08 15:47 | 40.39084 | 0.77631 | 28926 ft | 493 kts | 45° |
| 2026-05-08 15:48 | 40.43738 | 0.84258 | 29651 ft | 495 kts | 45° |
| 2026-05-08 15:48 | 40.46068 | 0.87582 | 30114 ft | 494 kts | 45° |
| 2026-05-08 15:48 | 40.48391 | 0.90896 | 30540 ft | 493 kts | 45° |
| 2026-05-08 15:49 | 40.50709 | 0.94203 | 30962 ft | 491 kts | 45° |
| 2026-05-08 15:49 | 40.53020 | 0.97503 | 31359 ft | 490 kts | 45° |
| 2026-05-08 15:49 | 40.55326 | 1.00800 | 31747 ft | 490 kts | 45° |
| 2026-05-08 15:49 | 40.57628 | 1.04097 | 32129 ft | 489 kts | 45° |
| 2026-05-08 15:50 | 40.59928 | 1.07399 | 32513 ft | 489 kts | 45° |
| 2026-05-08 15:50 | 40.62225 | 1.10700 | 32908 ft | 489 kts | 45° |
| 2026-05-08 15:50 | 40.64519 | 1.14003 | 33301 ft | 489 kts | 45° |
| 2026-05-08 15:50 | 40.66810 | 1.17309 | 33681 ft | 488 kts | 45° |
| 2026-05-08 15:51 | 40.69095 | 1.20611 | 34053 ft | 488 kts | 45° |
| 2026-05-08 15:51 | 40.71384 | 1.23914 | 34359 ft | 487 kts | 45° |
| 2026-05-08 15:51 | 40.73669 | 1.27208 | 34646 ft | 487 kts | 45° |
| 2026-05-08 15:51 | 40.75958 | 1.30513 | 34927 ft | 487 kts | 45° |
| 2026-05-08 15:52 | 40.78242 | 1.33812 | 35202 ft | 487 kts | 46° |
| 2026-05-08 15:52 | 40.80530 | 1.37118 | 35469 ft | 488 kts | 46° |
| 2026-05-08 15:52 | 40.82814 | 1.40427 | 35735 ft | 487 kts | 46° |
| 2026-05-08 15:52 | 40.85093 | 1.43740 | 35945 ft | 488 kts | 46° |
| 2026-05-08 15:53 | 40.87383 | 1.47074 | 36006 ft | 492 kts | 46° |
| 2026-05-08 15:53 | 40.91997 | 1.53805 | 35989 ft | 494 kts | 46° |
| 2026-05-08 15:54 | 40.96617 | 1.60542 | 36006 ft | 494 kts | 46° |
| 2026-05-08 15:54 | 41.01238 | 1.67288 | 36008 ft | 494 kts | 46° |
| 2026-05-08 15:55 | 41.05842 | 1.74041 | 36008 ft | 495 kts | 46° |
| 2026-05-08 15:55 | 41.12760 | 1.84209 | 36037 ft | 495 kts | 47° |
| 2026-05-08 15:56 | 41.17370 | 1.91005 | 36029 ft | 495 kts | 47° |
| 2026-05-08 15:56 | 41.21958 | 1.97787 | 36040 ft | 493 kts | 47° |
| 2026-05-08 15:57 | 41.26539 | 2.04581 | 36045 ft | 493 kts | 47° |
| 2026-05-08 15:57 | 41.30837 | 2.11678 | 36043 ft | 493 kts | 59° |
| 2026-05-08 15:58 | 41.33868 | 2.19848 | 36064 ft | 492 kts | 66° |
| 2026-05-08 15:58 | 41.36737 | 2.28105 | 36061 ft | 491 kts | 66° |
| 2026-05-08 15:59 | 41.39598 | 2.36331 | 36047 ft | 489 kts | 66° |
| 2026-05-08 15:59 | 41.42444 | 2.44552 | 36048 ft | 488 kts | 66° |
| 2026-05-08 16:00 | 41.45275 | 2.52776 | 36046 ft | 488 kts | 66° |
| 2026-05-08 16:00 | 41.48094 | 2.61004 | 36046 ft | 488 kts | 66° |
| 2026-05-08 16:01 | 41.50903 | 2.69231 | 36024 ft | 487 kts | 66° |
| 2026-05-08 16:01 | 41.53708 | 2.77443 | 36063 ft | 485 kts | 66° |
| 2026-05-08 16:02 | 41.56499 | 2.85627 | 36055 ft | 482 kts | 67° |
| 2026-05-08 16:02 | 41.59257 | 2.93764 | 36055 ft | 480 kts | 67° |
| 2026-05-08 16:03 | 41.61997 | 3.01863 | 36047 ft | 478 kts | 67° |
| 2026-05-08 16:03 | 41.64723 | 3.09945 | 36027 ft | 476 kts | 67° |
| 2026-05-08 16:04 | 41.67438 | 3.18022 | 36035 ft | 476 kts | 67° |
| 2026-05-08 16:04 | 41.70145 | 3.26095 | 36030 ft | 476 kts | 67° |
| 2026-05-08 16:05 | 41.72843 | 3.34175 | 36035 ft | 475 kts | 67° |
| 2026-05-08 16:05 | 41.75533 | 3.42255 | 36032 ft | 475 kts | 68° |
| 2026-05-08 16:06 | 41.78218 | 3.50333 | 36040 ft | 474 kts | 68° |
| 2026-05-08 16:06 | 41.80896 | 3.58404 | 36033 ft | 474 kts | 68° |
| 2026-05-08 16:07 | 41.83567 | 3.66467 | 36027 ft | 473 kts | 68° |
| 2026-05-08 16:07 | 41.86226 | 3.74536 | 36031 ft | 473 kts | 68° |
| 2026-05-08 16:08 | 41.88875 | 3.82609 | 36010 ft | 472 kts | 68° |
| 2026-05-08 16:08 | 41.91517 | 3.90685 | 36016 ft | 473 kts | 68° |
| 2026-05-08 16:09 | 41.93728 | 3.97465 | 36034 ft | 473 kts | 68° |
| 2026-05-08 16:09 | 41.96789 | 4.06853 | 36033 ft | 471 kts | 68° |
| 2026-05-08 16:10 | 41.99408 | 4.14917 | 36044 ft | 471 kts | 68° |
| 2026-05-08 16:10 | 42.02020 | 4.22983 | 36029 ft | 470 kts | 68° |
| 2026-05-08 16:11 | 42.04620 | 4.31051 | 36039 ft | 470 kts | 68° |
| 2026-05-08 16:11 | 42.07417 | 4.38977 | 36039 ft | 470 kts | 58° |
| 2026-05-08 16:12 | 42.11647 | 4.45629 | 36045 ft | 468 kts | 39° |
| 2026-05-08 16:12 | 42.16668 | 4.51226 | 36036 ft | 469 kts | 39° |
| 2026-05-08 16:13 | 42.21677 | 4.56871 | 36035 ft | 470 kts | 39° |
| 2026-05-08 16:13 | 42.26686 | 4.62538 | 36031 ft | 469 kts | 39° |
| 2026-05-08 16:14 | 42.31689 | 4.68193 | 36050 ft | 469 kts | 39° |
| 2026-05-08 16:14 | 42.36690 | 4.73846 | 36057 ft | 468 kts | 39° |
| 2026-05-08 16:15 | 42.41716 | 4.79554 | 36056 ft | 468 kts | 39° |
| 2026-05-08 16:15 | 42.46701 | 4.85221 | 36057 ft | 468 kts | 39° |
| 2026-05-08 16:16 | 42.51679 | 4.90895 | 36070 ft | 468 kts | 39° |
| 2026-05-08 16:16 | 42.56619 | 4.96546 | 36042 ft | 468 kts | 39° |
| 2026-05-08 16:17 | 42.60781 | 5.01317 | 36045 ft | 468 kts | 39° |
| 2026-05-08 16:17 | 42.66556 | 5.07941 | 36051 ft | 467 kts | 39° |
| 2026-05-08 16:18 | 42.71523 | 5.13645 | 36054 ft | 467 kts | 39° |
| 2026-05-08 16:18 | 42.76489 | 5.19362 | 36054 ft | 468 kts | 39° |
| 2026-05-08 16:19 | 42.81443 | 5.25094 | 36055 ft | 468 kts | 39° |
| 2026-05-08 16:19 | 42.85593 | 5.29902 | 36054 ft | 468 kts | 39° |
| 2026-05-08 16:20 | 42.90548 | 5.35643 | 36053 ft | 467 kts | 39° |
| 2026-05-08 16:20 | 42.95503 | 5.41401 | 36053 ft | 468 kts | 39° |
| 2026-05-08 16:21 | 43.00451 | 5.47160 | 36052 ft | 468 kts | 39° |
| 2026-05-08 16:21 | 43.05401 | 5.52929 | 36051 ft | 468 kts | 39° |
| 2026-05-08 16:22 | 43.10286 | 5.58815 | 36058 ft | 469 kts | 45° |
| 2026-05-08 16:22 | 43.14638 | 5.65483 | 36049 ft | 470 kts | 47° |
| 2026-05-08 16:23 | 43.18986 | 5.72176 | 36036 ft | 470 kts | 47° |
| 2026-05-08 16:23 | 43.23339 | 5.78896 | 36033 ft | 472 kts | 47° |
| 2026-05-08 16:24 | 43.27693 | 5.85638 | 36033 ft | 472 kts | 47° |
| 2026-05-08 16:24 | 43.32048 | 5.92387 | 36038 ft | 472 kts | 47° |
| 2026-05-08 16:25 | 43.36598 | 5.98862 | 36038 ft | 469 kts | 36° |
| 2026-05-08 16:25 | 43.39285 | 6.01367 | 36036 ft | 466 kts | 25° |
| 2026-05-08 16:25 | 43.42208 | 6.03234 | 36036 ft | 461 kts | 16° |
| 2026-05-08 16:26 | 43.48407 | 6.04960 | 36043 ft | 452 kts | 359° |
| 2026-05-08 16:26 | 43.54676 | 6.05572 | 36041 ft | 452 kts | 359° |
| 2026-05-08 16:27 | 43.60953 | 6.06201 | 36036 ft | 452 kts | 359° |
| 2026-05-08 16:27 | 43.67223 | 6.06836 | 36048 ft | 452 kts | 359° |
| 2026-05-08 16:28 | 43.73491 | 6.07478 | 36045 ft | 452 kts | 1° |
| 2026-05-08 16:28 | 43.79638 | 6.09559 | 36045 ft | 461 kts | 19° |
| 2026-05-08 16:29 | 43.85433 | 6.13455 | 36039 ft | 463 kts | 22° |
| 2026-05-08 16:29 | 43.91211 | 6.17412 | 36047 ft | 463 kts | 21° |
| 2026-05-08 16:30 | 43.96985 | 6.21369 | 36046 ft | 463 kts | 21° |
| 2026-05-08 16:30 | 44.02759 | 6.25322 | 36052 ft | 463 kts | 21° |
| 2026-05-08 16:31 | 44.08528 | 6.29274 | 36066 ft | 462 kts | 21° |
| 2026-05-08 16:31 | 44.14297 | 6.33242 | 36060 ft | 463 kts | 21° |
| 2026-05-08 16:32 | 44.20066 | 6.37223 | 36056 ft | 463 kts | 21° |
| 2026-05-08 16:32 | 44.25839 | 6.41205 | 36071 ft | 463 kts | 21° |
| 2026-05-08 16:33 | 44.31607 | 6.45195 | 36068 ft | 462 kts | 21° |
| 2026-05-08 16:33 | 44.37366 | 6.49194 | 36061 ft | 462 kts | 21° |
| 2026-05-08 16:34 | 44.43118 | 6.53203 | 36083 ft | 462 kts | 21° |
| 2026-05-08 16:34 | 44.48878 | 6.57219 | 36086 ft | 462 kts | 21° |
| 2026-05-08 16:35 | 44.54630 | 6.61214 | 36079 ft | 461 kts | 20° |
| 2026-05-08 16:35 | 44.60378 | 6.65231 | 36081 ft | 461 kts | 21° |
| 2026-05-08 16:36 | 44.66112 | 6.69259 | 36089 ft | 461 kts | 21° |
| 2026-05-08 16:36 | 44.71847 | 6.73298 | 36084 ft | 461 kts | 21° |
| 2026-05-08 16:37 | 44.77678 | 6.77129 | 36083 ft | 455 kts | 12° |
| 2026-05-08 16:37 | 44.83776 | 6.78705 | 36089 ft | 440 kts | 354° |
| 2026-05-08 16:38 | 44.89835 | 6.78377 | 36089 ft | 436 kts | 351° |
| 2026-05-08 16:38 | 44.95894 | 6.77983 | 36085 ft | 436 kts | 351° |
| 2026-05-08 16:39 | 45.01947 | 6.77590 | 36099 ft | 436 kts | 351° |
| 2026-05-08 16:39 | 45.08003 | 6.77196 | 36097 ft | 435 kts | 351° |
| 2026-05-08 16:40 | 45.14055 | 6.76787 | 36085 ft | 436 kts | 351° |
| 2026-05-08 16:40 | 45.20108 | 6.76387 | 36108 ft | 435 kts | 351° |
| 2026-05-08 16:41 | 45.26149 | 6.75994 | 36092 ft | 433 kts | 351° |
| 2026-05-08 16:42 | 45.35173 | 6.75388 | 36087 ft | 433 kts | 351° |
| 2026-05-08 16:42 | 45.41190 | 6.74986 | 36095 ft | 433 kts | 351° |
| 2026-05-08 16:43 | 45.47198 | 6.74589 | 36087 ft | 431 kts | 351° |
| 2026-05-08 16:43 | 45.53187 | 6.74177 | 36081 ft | 431 kts | 351° |
| 2026-05-08 16:44 | 45.59173 | 6.73762 | 36102 ft | 430 kts | 352° |
| 2026-05-08 16:44 | 45.65142 | 6.73351 | 36082 ft | 429 kts | 352° |
| 2026-05-08 16:45 | 45.71093 | 6.72949 | 36071 ft | 427 kts | 351° |
| 2026-05-08 16:45 | 45.77034 | 6.72534 | 36068 ft | 428 kts | 351° |
| 2026-05-08 16:46 | 45.82984 | 6.72120 | 36078 ft | 427 kts | 351° |
| 2026-05-08 16:46 | 45.88917 | 6.71718 | 36068 ft | 427 kts | 351° |
| 2026-05-08 16:47 | 45.94848 | 6.71323 | 36051 ft | 426 kts | 351° |
| 2026-05-08 16:47 | 46.00775 | 6.70923 | 36050 ft | 427 kts | 352° |
| 2026-05-08 16:48 | 46.06709 | 6.70513 | 36038 ft | 427 kts | 352° |
| 2026-05-08 16:48 | 46.12621 | 6.69852 | 36041 ft | 422 kts | 343° |
| 2026-05-08 16:49 | 46.18177 | 6.67434 | 36042 ft | 416 kts | 336° |
| 2026-05-08 16:49 | 46.23674 | 6.64756 | 36019 ft | 417 kts | 336° |
| 2026-05-08 16:50 | 46.29186 | 6.62074 | 36024 ft | 418 kts | 336° |
| 2026-05-08 16:50 | 46.34704 | 6.59384 | 36020 ft | 418 kts | 336° |
| 2026-05-08 16:51 | 46.40216 | 6.56687 | 36027 ft | 418 kts | 336° |
| 2026-05-08 16:51 | 46.45726 | 6.53987 | 36019 ft | 418 kts | 336° |
| 2026-05-08 16:52 | 46.51241 | 6.51279 | 36019 ft | 418 kts | 336° |
| 2026-05-08 16:52 | 46.56758 | 6.48568 | 36020 ft | 419 kts | 336° |
| 2026-05-08 16:53 | 46.65033 | 6.44497 | 36023 ft | 418 kts | 336° |
| 2026-05-08 16:53 | 46.70536 | 6.41779 | 36025 ft | 418 kts | 336° |
| 2026-05-08 16:54 | 46.76036 | 6.39043 | 36022 ft | 418 kts | 336° |
| 2026-05-08 16:54 | 46.81537 | 6.36306 | 36052 ft | 418 kts | 336° |
| 2026-05-08 16:55 | 46.87039 | 6.33571 | 36040 ft | 417 kts | 336° |
| 2026-05-08 16:55 | 46.92532 | 6.30829 | 36040 ft | 417 kts | 336° |
| 2026-05-08 16:56 | 46.98021 | 6.28081 | 36035 ft | 417 kts | 336° |
| 2026-05-08 16:56 | 47.03512 | 6.25329 | 36045 ft | 417 kts | 336° |
| 2026-05-08 16:57 | 47.08011 | 6.22716 | 36036 ft | 412 kts | 329° |
| 2026-05-08 16:57 | 47.13159 | 6.19005 | 36031 ft | 412 kts | 329° |
| 2026-05-08 16:58 | 47.18309 | 6.15292 | 36026 ft | 412 kts | 329° |
| 2026-05-08 16:58 | 47.23453 | 6.11571 | 36041 ft | 412 kts | 329° |
| 2026-05-08 16:59 | 47.28601 | 6.07847 | 36032 ft | 412 kts | 329° |
| 2026-05-08 16:59 | 47.33833 | 6.04397 | 36024 ft | 416 kts | 339° |
| 2026-05-08 17:00 | 47.39637 | 6.03347 | 36018 ft | 427 kts | 355° |
| 2026-05-08 17:00 | 47.45585 | 6.03500 | 36036 ft | 428 kts | 355° |
| 2026-05-08 17:01 | 47.51538 | 6.03632 | 36028 ft | 428 kts | 355° |
| 2026-05-08 17:01 | 47.57495 | 6.03771 | 36021 ft | 428 kts | 355° |
| 2026-05-08 17:02 | 47.63446 | 6.03898 | 36017 ft | 428 kts | 355° |
| 2026-05-08 17:02 | 47.69403 | 6.04028 | 36031 ft | 429 kts | 355° |
| 2026-05-08 17:03 | 47.75380 | 6.04647 | 36018 ft | 437 kts | 7° |
| 2026-05-08 17:03 | 47.81303 | 6.06855 | 36018 ft | 439 kts | 9° |
| 2026-05-08 17:04 | 47.87233 | 6.09094 | 36030 ft | 440 kts | 9° |
| 2026-05-08 17:04 | 47.93179 | 6.11320 | 36025 ft | 441 kts | 8° |
| 2026-05-08 17:05 | 47.99130 | 6.13557 | 36028 ft | 441 kts | 9° |
| 2026-05-08 17:05 | 48.05077 | 6.15821 | 36032 ft | 441 kts | 9° |
| 2026-05-08 17:06 | 48.11034 | 6.18090 | 36049 ft | 442 kts | 9° |
| 2026-05-08 17:06 | 48.16999 | 6.20360 | 36041 ft | 443 kts | 9° |
| 2026-05-08 17:07 | 48.22977 | 6.22631 | 36043 ft | 443 kts | 9° |
| 2026-05-08 17:07 | 48.28961 | 6.24914 | 36061 ft | 444 kts | 10° |
| 2026-05-08 17:08 | 48.34955 | 6.27210 | 36047 ft | 445 kts | 10° |
| 2026-05-08 17:08 | 48.40965 | 6.29505 | 36042 ft | 446 kts | 10° |
| 2026-05-08 17:09 | 48.46977 | 6.31824 | 36040 ft | 446 kts | 10° |
| 2026-05-08 17:09 | 48.52996 | 6.34157 | 36051 ft | 447 kts | 10° |
| 2026-05-08 17:10 | 48.59025 | 6.36488 | 36045 ft | 447 kts | 11° |
| 2026-05-08 17:10 | 48.65059 | 6.38790 | 36046 ft | 446 kts | 7° |
| 2026-05-08 17:11 | 48.71190 | 6.39670 | 36046 ft | 442 kts | 359° |
| 2026-05-08 17:11 | 48.77325 | 6.40280 | 36046 ft | 442 kts | 360° |
| 2026-05-08 17:12 | 48.83457 | 6.40910 | 36066 ft | 442 kts | 360° |
| 2026-05-08 17:12 | 48.89597 | 6.41534 | 36069 ft | 442 kts | 360° |
| 2026-05-08 17:13 | 48.95734 | 6.42160 | 36078 ft | 442 kts | 0° |
| 2026-05-08 17:13 | 49.01880 | 6.42790 | 36071 ft | 443 kts | 0° |
| 2026-05-08 17:14 | 49.08031 | 6.43426 | 36069 ft | 443 kts | 360° |
| 2026-05-08 17:14 | 49.14094 | 6.42665 | 36088 ft | 435 kts | 342° |
| 2026-05-08 17:15 | 49.19927 | 6.40241 | 36060 ft | 435 kts | 342° |
| 2026-05-08 17:15 | 49.25784 | 6.37839 | 36054 ft | 436 kts | 342° |
| 2026-05-08 17:16 | 49.31653 | 6.35435 | 36070 ft | 437 kts | 342° |
| 2026-05-08 17:16 | 49.37530 | 6.33018 | 36072 ft | 438 kts | 342° |
| 2026-05-08 17:17 | 49.43414 | 6.30584 | 36065 ft | 438 kts | 342° |
| 2026-05-08 17:17 | 49.49301 | 6.28136 | 36074 ft | 439 kts | 342° |
| 2026-05-08 17:18 | 49.55193 | 6.25697 | 36080 ft | 438 kts | 342° |
| 2026-05-08 17:18 | 49.61096 | 6.23285 | 36077 ft | 438 kts | 342° |
| 2026-05-08 17:19 | 49.67019 | 6.20863 | 36076 ft | 437 kts | 342° |
| 2026-05-08 17:19 | 49.72862 | 6.18459 | 36069 ft | 438 kts | 342° |
| 2026-05-08 17:20 | 49.75858 | 6.17219 | 35430 ft | 443 kts | 342° |
| 2026-05-08 17:20 | 49.78853 | 6.15976 | 34579 ft | 449 kts | 342° |
| 2026-05-08 17:20 | 49.81866 | 6.14727 | 33979 ft | 447 kts | 343° |
| 2026-05-08 17:20 | 49.84884 | 6.13511 | 33156 ft | 449 kts | 347° |
| 2026-05-08 17:21 | 49.87992 | 6.12978 | 32495 ft | 450 kts | 358° |
| 2026-05-08 17:21 | 49.91134 | 6.12991 | 31597 ft | 454 kts | 359° |
| 2026-05-08 17:21 | 49.94250 | 6.13012 | 30892 ft | 454 kts | 359° |
| 2026-05-08 17:21 | 49.97442 | 6.13035 | 30143 ft | 453 kts | 359° |
| 2026-05-08 17:22 | 50.00602 | 6.13056 | 29162 ft | 455 kts | 359° |
| 2026-05-08 17:22 | 50.03758 | 6.13074 | 28395 ft | 452 kts | 359° |
| 2026-05-08 17:22 | 50.06887 | 6.13089 | 27714 ft | 447 kts | 359° |
| 2026-05-08 17:22 | 50.09981 | 6.13102 | 27063 ft | 443 kts | 359° |
| 2026-05-08 17:23 | 50.13050 | 6.13115 | 26416 ft | 438 kts | 359° |
| 2026-05-08 17:23 | 50.16085 | 6.13133 | 25791 ft | 435 kts | 359° |
| 2026-05-08 17:23 | 50.19096 | 6.13153 | 25151 ft | 432 kts | 359° |
| 2026-05-08 17:23 | 50.22050 | 6.13176 | 24956 ft | 413 kts | 359° |
| 2026-05-08 17:24 | 50.24856 | 6.13200 | 24520 ft | 396 kts | 359° |
| 2026-05-08 17:24 | 50.27577 | 6.13304 | 23882 ft | 389 kts | 5° |
| 2026-05-08 17:24 | 50.30223 | 6.14222 | 23431 ft | 389 kts | 19° |
| 2026-05-08 17:24 | 50.32643 | 6.16000 | 22774 ft | 383 kts | 31° |
| 2026-05-08 17:25 | 50.34852 | 6.18247 | 22191 ft | 371 kts | 32° |
| 2026-05-08 17:25 | 50.36971 | 6.20421 | 21748 ft | 357 kts | 32° |
| 2026-05-08 17:25 | 50.39010 | 6.22522 | 21325 ft | 345 kts | 32° |
| 2026-05-08 17:25 | 50.40978 | 6.24555 | 20905 ft | 333 kts | 33° |
| 2026-05-08 17:26 | 50.42885 | 6.26532 | 20491 ft | 323 kts | 32° |
| 2026-05-08 17:26 | 50.44752 | 6.28464 | 20095 ft | 322 kts | 32° |
| 2026-05-08 17:26 | 50.46620 | 6.30391 | 19684 ft | 321 kts | 33° |
| 2026-05-08 17:26 | 50.48351 | 6.32586 | 19287 ft | 320 kts | 45° |
| 2026-05-08 17:27 | 50.49768 | 6.35279 | 18859 ft | 325 kts | 57° |
| 2026-05-08 17:27 | 50.50851 | 6.38476 | 18370 ft | 336 kts | 68° |
| 2026-05-08 17:27 | 50.51766 | 6.41872 | 17837 ft | 338 kts | 67° |
| 2026-05-08 17:27 | 50.52686 | 6.45270 | 17323 ft | 339 kts | 67° |
| 2026-05-08 17:28 | 50.53614 | 6.48673 | 16860 ft | 339 kts | 67° |
| 2026-05-08 17:28 | 50.54547 | 6.52080 | 16355 ft | 340 kts | 67° |
| 2026-05-08 17:28 | 50.55481 | 6.55492 | 15870 ft | 340 kts | 67° |
| 2026-05-08 17:28 | 50.56415 | 6.58921 | 15377 ft | 342 kts | 67° |
| 2026-05-08 17:29 | 50.57346 | 6.62355 | 14882 ft | 342 kts | 67° |
| 2026-05-08 17:29 | 50.58276 | 6.65807 | 14382 ft | 343 kts | 67° |
| 2026-05-08 17:29 | 50.59227 | 6.69250 | 13964 ft | 341 kts | 63° |
| 2026-05-08 17:29 | 50.60612 | 6.72261 | 13456 ft | 340 kts | 43° |
| 2026-05-08 17:30 | 50.62534 | 6.74373 | 12910 ft | 339 kts | 23° |
| 2026-05-08 17:30 | 50.64778 | 6.75337 | 12562 ft | 331 kts | 4° |
| 2026-05-08 17:30 | 50.67059 | 6.75472 | 12045 ft | 326 kts | 360° |
| 2026-05-08 17:30 | 50.69269 | 6.75551 | 11786 ft | 310 kts | 360° |
| 2026-05-08 17:31 | 50.71402 | 6.75628 | 11240 ft | 303 kts | 360° |
| 2026-05-08 17:31 | 50.73495 | 6.75705 | 10634 ft | 299 kts | 360° |
| 2026-05-08 17:31 | 50.75566 | 6.75779 | 10039 ft | 296 kts | 360° |
| 2026-05-08 17:31 | 50.77603 | 6.75855 | 9509 ft | 290 kts | 360° |
| 2026-05-08 17:32 | 50.79612 | 6.75930 | 9086 ft | 287 kts | 360° |
| 2026-05-08 17:32 | 50.81614 | 6.76003 | 8708 ft | 289 kts | 0° |
| 2026-05-08 17:32 | 50.83621 | 6.76073 | 8334 ft | 288 kts | 0° |
| 2026-05-08 17:32 | 50.85619 | 6.76139 | 7942 ft | 288 kts | 0° |
| 2026-05-08 17:33 | 50.87602 | 6.76202 | 7685 ft | 283 kts | 0° |
| 2026-05-08 17:33 | 50.89570 | 6.76264 | 7346 ft | 282 kts | 0° |
| 2026-05-08 17:33 | 50.91518 | 6.76324 | 6848 ft | 278 kts | 0° |
| 2026-05-08 17:33 | 50.93438 | 6.76563 | 6287 ft | 274 kts | 13° |
| 2026-05-08 17:34 | 50.94609 | 6.77202 | 6137 ft | 263 kts | 25° |
| 2026-05-08 17:34 | 50.96212 | 6.78466 | 5771 ft | 254 kts | 26° |
| 2026-05-08 17:34 | 50.97747 | 6.79769 | 5600 ft | 248 kts | 35° |
| 2026-05-08 17:34 | 50.99037 | 6.81602 | 5472 ft | 243 kts | 51° |
| 2026-05-08 17:35 | 51.00057 | 6.83696 | 5350 ft | 236 kts | 53° |
| 2026-05-08 17:35 | 51.01064 | 6.85773 | 5009 ft | 237 kts | 52° |
| 2026-05-08 17:35 | 51.02028 | 6.87880 | 4529 ft | 234 kts | 63° |
| 2026-05-08 17:35 | 51.02373 | 6.90334 | 4165 ft | 227 kts | 96° |
| 2026-05-08 17:36 | 51.01867 | 6.92613 | 3920 ft | 218 kts | 126° |
| 2026-05-08 17:36 | 51.00805 | 6.94342 | 3663 ft | 221 kts | 137° |
| 2026-05-08 17:36 | 50.99665 | 6.95988 | 3362 ft | 221 kts | 137° |
| 2026-05-08 17:36 | 50.98532 | 6.97637 | 3064 ft | 220 kts | 137° |
| 2026-05-08 17:37 | 50.97409 | 6.99274 | 2761 ft | 216 kts | 137° |
| 2026-05-08 17:37 | 50.96327 | 7.00854 | 2473 ft | 207 kts | 137° |
| 2026-05-08 17:37 | 50.95288 | 7.02368 | 2198 ft | 199 kts | 137° |
| 2026-05-08 17:37 | 50.94297 | 7.03813 | 1973 ft | 191 kts | 136° |
| 2026-05-08 17:38 | 50.93323 | 7.05232 | 1681 ft | 187 kts | 136° |
| 2026-05-08 17:38 | 50.92395 | 7.06580 | 1425 ft | 174 kts | 136° |
| 2026-05-08 17:38 | 50.91542 | 7.07823 | 1195 ft | 160 kts | 137° |
| 2026-05-08 17:38 | 50.90751 | 7.08975 | 991 ft | 150 kts | 137° |
| 2026-05-08 17:39 | 50.89994 | 7.10073 | 795 ft | 146 kts | 137° |
| 2026-05-08 17:39 | 50.89252 | 7.11153 | 603 ft | 144 kts | 136° |
| 2026-05-08 17:39 | 50.88517 | 7.12216 | 408 ft | 142 kts | 137° |
| 2026-05-08 17:39 | 50.87791 | 7.13272 | 250 ft | 136 kts | 137° |
| 2026-05-08 17:40 | 50.87204 | 7.14130 | 255 ft | 91 kts | 137° |
| 2026-05-08 17:40 | 50.86852 | 7.14641 | 256 ft | 54 kts | 137° |
| 2026-05-08 17:40 | 50.86600 | 7.15005 | 262 ft | 47 kts | 137° |
| 2026-05-08 17:40 | 50.86382 | 7.15264 | 269 ft | 32 kts | 157° |
| 2026-05-08 17:41 | 50.86296 | 7.15309 | 273 ft | 0 kts | 165° |
| 2026-05-08 17:41 | 50.86294 | 7.15310 | 273 ft | 1 kts | 165° |
| 2026-05-08 17:41 | 50.86264 | 7.15321 | 274 ft | 8 kts | 167° |
| 2026-05-08 17:41 | 50.86195 | 7.15344 | 275 ft | 11 kts | 168° |
| 2026-05-08 17:42 | 50.86111 | 7.15350 | 276 ft | 13 kts | 196° |
| 2026-05-08 17:42 | 50.86045 | 7.15226 | 279 ft | 18 kts | 258° |
| 2026-05-08 17:42 | 50.86104 | 7.15050 | 276 ft | 21 kts | 316° |
| 2026-05-08 17:42 | 50.86224 | 7.14875 | 270 ft | 26 kts | 318° |
| 2026-05-08 17:43 | 50.86361 | 7.14676 | 265 ft | 23 kts | 317° |
| 2026-05-08 17:43 | 50.86476 | 7.14509 | 260 ft | 25 kts | 317° |
| 2026-05-08 17:43 | 50.86617 | 7.14307 | 257 ft | 29 kts | 317° |
| 2026-05-08 17:43 | 50.86740 | 7.14139 | 252 ft | 13 kts | 335° |
| 2026-05-08 17:44 | 50.86833 | 7.14055 | 247 ft | 19 kts | 318° |
| 2026-05-08 17:44 | 50.86943 | 7.13894 | 244 ft | 23 kts | 321° |
| 2026-05-08 17:44 | 50.87048 | 7.13743 | 242 ft | 8 kts | 317° |
| 2026-05-08 17:44 | 50.87099 | 7.13670 | 241 ft | 13 kts | 319° |
| 2026-05-08 17:45 | 50.87173 | 7.13562 | 238 ft | 16 kts | 317° |
| 2026-05-08 17:45 | 50.87261 | 7.13434 | 238 ft | 19 kts | 317° |
| 2026-05-08 17:45 | 50.87363 | 7.13286 | 233 ft | 21 kts | 317° |
| 2026-05-08 17:45 | 50.87477 | 7.13121 | 234 ft | 23 kts | 317° |
| 2026-05-08 17:46 | 50.87599 | 7.12943 | 230 ft | 25 kts | 318° |
| 2026-05-08 17:46 | 50.87691 | 7.12811 | 232 ft | 15 kts | 317° |
| 2026-05-08 17:46 | 50.87757 | 7.12713 | 231 ft | 9 kts | 313° |
| 2026-05-08 17:46 | 50.87766 | 7.12619 | 230 ft | 9 kts | 259° |
| 2026-05-08 17:47 | 50.87757 | 7.12567 | 231 ft | 4 kts | 249° |
| 2026-05-08 17:47 | 50.87743 | 7.12526 | 232 ft | 4 kts | 266° |
| 2026-05-08 17:47 | 50.87754 | 7.12464 | 230 ft | 6 kts | 287° |
| 2026-05-08 17:47 | 50.87764 | 7.12419 | 232 ft | 5 kts | 288° |
| 2026-05-08 17:48 | 50.87768 | 7.12396 | 230 ft | 0 kts | 288° |